Time;durP1;ratioP1;P1;durP2;ratioP2;P2;SDS_P1;SDS_P2;PMS_P1;PMS_P2;Temp;Humidity;BMP_temperature;BMP_pressure;BME280_temperature;BME280_humidity;BME280_pressure;Samples;Min_cycle;Max_cycle;Signal;HPM_P1;HPM_P2
2020/12/07 00:00:07;;;;;;;0.50;0.50;;;2.30;99.90;;;;;;5071442;28;20211;-86
2020/12/07 00:02:34;;;;;;;0.50;0.50;;;2.20;99.90;;;;;;5071235;28;20211;-85
2020/12/07 00:05:02;;;;;;;0.50;0.50;;;2.30;99.90;;;;;;5071357;28;20261;-86
2020/12/07 00:07:28;;;;;;;0.50;0.50;;;2.30;99.90;;;;;;5071243;28;20203;-85
2020/12/07 00:09:54;;;;;;;0.50;0.50;;;2.40;99.90;;;;;;5071283;28;20674;-86
2020/12/07 00:12:25;;;;;;;0.50;0.50;;;2.30;99.90;;;;;;5071215;28;20277;-86
2020/12/07 00:14:51;;;;;;;0.50;0.50;;;2.40;99.90;;;;;;5071375;28;20257;-85
2020/12/07 00:17:20;;;;;;;0.50;0.50;;;2.40;99.90;;;;;;5071551;28;20207;-86
2020/12/07 00:19:46;;;;;;;0.50;0.50;;;2.40;99.90;;;;;;5071299;28;20620;-86
2020/12/07 00:22:20;;;;;;;0.50;0.50;;;2.30;99.90;;;;;;5071547;28;20204;-85
2020/12/07 00:24:47;;;;;;;0.50;0.50;;;2.40;99.90;;;;;;5071380;28;20760;-85
2020/12/07 00:27:13;;;;;;;0.50;0.50;;;2.40;99.90;;;;;;5071172;28;20207;-85
2020/12/07 00:29:39;;;;;;;0.50;0.50;;;2.40;99.90;;;;;;5070947;28;20207;-85
2020/12/07 00:32:05;;;;;;;0.50;0.50;;;2.50;99.90;;;;;;5071418;28;20276;-85
2020/12/07 00:34:31;;;;;;;0.50;0.50;;;2.50;99.90;;;;;;5071084;28;20212;-85
2020/12/07 00:36:57;;;;;;;0.50;0.50;;;2.70;99.90;;;;;;5070895;28;20709;-85
2020/12/07 00:39:25;;;;;;;0.50;0.50;;;2.90;99.90;;;;;;5071098;28;20203;-86
2020/12/07 00:41:51;;;;;;;0.50;0.50;;;2.90;99.90;;;;;;5071041;28;20307;-85
2020/12/07 00:44:20;;;;;;;0.50;0.50;;;3.00;99.90;;;;;;5070969;28;20253;-85
2020/12/07 00:46:46;;;;;;;0.50;0.50;;;3.40;99.90;;;;;;5070778;28;20257;-85
2020/12/07 00:49:13;;;;;;;0.50;0.50;;;3.60;99.90;;;;;;5070977;28;20211;-85
2020/12/07 00:51:39;;;;;;;0.50;0.50;;;3.60;99.90;;;;;;5070852;28;20737;-85
2020/12/07 00:54:05;;;;;;;0.50;0.50;;;3.80;99.90;;;;;;5071625;28;20215;-85
2020/12/07 00:56:32;;;;;;;0.50;0.50;;;3.80;99.90;;;;;;5071222;28;20252;-85
2020/12/07 00:58:58;;;;;;;0.47;0.47;;;3.80;99.90;;;;;;5070611;28;20254;-85
2020/12/07 01:01:24;;;;;;;0.40;0.40;;;3.90;99.90;;;;;;5070864;28;20210;-85
2020/12/07 01:03:50;;;;;;;0.40;0.40;;;4.00;99.90;;;;;;5070683;28;20199;-85
2020/12/07 01:06:16;;;;;;;0.50;0.50;;;4.10;99.90;;;;;;5070700;28;20265;-85
2020/12/07 01:08:42;;;;;;;0.50;0.50;;;4.20;99.90;;;;;;5070883;28;20249;-85
2020/12/07 01:11:09;;;;;;;0.40;0.40;;;4.20;99.90;;;;;;5070398;28;20702;-85
2020/12/07 01:13:35;;;;;;;0.50;0.50;;;4.40;99.90;;;;;;5070624;28;20571;-85
2020/12/07 01:16:02;;;;;;;0.40;0.40;;;4.40;99.90;;;;;;5071050;28;20203;-85
2020/12/07 01:18:28;;;;;;;0.40;0.40;;;4.50;99.90;;;;;;5070635;28;20207;-86
2020/12/07 01:20:54;;;;;;;0.50;0.50;;;4.50;99.90;;;;;;5070284;28;20203;-86
2020/12/07 01:23:20;;;;;;;0.40;0.40;;;4.50;99.90;;;;;;5070391;28;20260;-85
2020/12/07 01:25:46;;;;;;;0.40;0.40;;;4.60;99.90;;;;;;5070333;28;20625;-85
2020/12/07 01:28:12;;;;;;;0.50;0.50;;;4.60;99.90;;;;;;5070702;28;20200;-85
2020/12/07 01:30:42;;;;;;;0.50;0.50;;;4.60;99.90;;;;;;5070300;28;20215;-86
2020/12/07 01:33:08;;;;;;;0.40;0.40;;;4.60;99.90;;;;;;5070475;28;20258;-86
2020/12/07 01:35:35;;;;;;;0.40;0.40;;;4.60;99.90;;;;;;5071024;28;20723;-85
2020/12/07 01:38:01;;;;;;;0.40;0.40;;;4.60;99.90;;;;;;5070960;28;20390;-85
2020/12/07 01:40:27;;;;;;;0.50;0.50;;;4.70;99.90;;;;;;5073787;28;20257;-86
2020/12/07 01:42:53;;;;;;;0.40;0.40;;;4.70;99.90;;;;;;5074831;28;20207;-85
2020/12/07 01:45:19;;;;;;;0.40;0.40;;;4.70;99.90;;;;;;5074760;28;20291;-85
2020/12/07 01:47:46;;;;;;;0.40;0.40;;;4.80;99.90;;;;;;5074629;28;20207;-85
2020/12/07 01:50:13;;;;;;;0.50;0.50;;;4.80;99.90;;;;;;5074568;28;20203;-85
2020/12/07 01:52:40;;;;;;;0.40;0.40;;;4.80;99.90;;;;;;5074623;28;20644;-85
2020/12/07 01:55:07;;;;;;;0.40;0.40;;;4.80;99.90;;;;;;5074641;28;20211;-85
2020/12/07 01:57:38;;;;;;;0.50;0.50;;;4.80;99.90;;;;;;5074658;28;20204;-85
2020/12/07 02:00:09;;;;;;;0.40;0.40;;;4.80;99.90;;;;;;5074831;28;20234;-85
2020/12/07 02:02:35;;;;;;;0.40;0.40;;;4.80;99.90;;;;;;5074723;28;20195;-85
2020/12/07 02:05:02;;;;;;;0.40;0.40;;;4.80;99.90;;;;;;5074215;28;20628;-85
2020/12/07 02:07:28;;;;;;;0.50;0.50;;;4.90;99.90;;;;;;5074258;28;20788;-85
2020/12/07 02:09:54;;;;;;;0.50;0.50;;;4.90;99.90;;;;;;5074319;28;20203;-86
2020/12/07 02:12:20;;;;;;;0.45;0.45;;;4.90;99.90;;;;;;5074022;28;20649;-85
2020/12/07 02:14:46;;;;;;;0.40;0.40;;;4.90;99.90;;;;;;5074375;28;20248;-85
2020/12/07 02:17:13;;;;;;;0.40;0.40;;;4.90;99.90;;;;;;5073955;28;20207;-85
2020/12/07 02:19:40;;;;;;;0.50;0.50;;;4.90;99.90;;;;;;5074041;28;20208;-85
2020/12/07 02:22:07;;;;;;;0.50;0.50;;;4.90;99.90;;;;;;5074134;28;20207;-85
2020/12/07 02:24:34;;;;;;;0.40;0.40;;;4.80;99.90;;;;;;5074110;28;20234;-85
2020/12/07 02:27:00;;;;;;;0.50;0.50;;;4.90;99.90;;;;;;5073812;28;20215;-85
2020/12/07 02:29:28;;;;;;;0.50;0.50;;;4.90;99.90;;;;;;5073724;28;20306;-85
2020/12/07 02:32:11;;;;;;;0.50;0.50;;;5.00;99.90;;;;;;5073728;28;20233;-85
2020/12/07 02:34:37;;;;;;;0.50;0.50;;;5.00;99.90;;;;;;5073948;28;20295;-85
2020/12/07 02:37:05;;;;;;;0.40;0.40;;;5.00;99.90;;;;;;5073309;28;20739;-85
2020/12/07 02:39:32;;;;;;;0.40;0.40;;;5.10;99.90;;;;;;5073783;28;20271;-85
2020/12/07 02:41:59;;;;;;;0.50;0.50;;;5.10;99.90;;;;;;5073583;28;20200;-85
2020/12/07 02:44:25;;;;;;;0.50;0.50;;;5.20;99.90;;;;;;5073512;28;20204;-86
2020/12/07 02:46:51;;;;;;;0.50;0.50;;;5.20;99.90;;;;;;5073562;28;20204;-85
2020/12/07 02:49:17;;;;;;;0.50;0.50;;;5.20;99.90;;;;;;5073757;28;20253;-84
2020/12/07 02:51:46;;;;;;;0.50;0.50;;;5.20;99.90;;;;;;5072844;28;20232;-85
2020/12/07 02:54:12;;;;;;;0.45;0.45;;;5.20;99.90;;;;;;5073525;28;20207;-85
2020/12/07 02:56:39;;;;;;;0.40;0.40;;;5.20;99.90;;;;;;5073839;28;20234;-85
2020/12/07 02:59:05;;;;;;;0.50;0.50;;;5.20;99.90;;;;;;5073486;28;20234;-85
2020/12/07 03:01:33;;;;;;;0.40;0.40;;;5.20;99.90;;;;;;5073255;28;20225;-86
2020/12/07 03:04:01;;;;;;;0.45;0.45;;;5.20;99.90;;;;;;5073053;28;20204;-84
2020/12/07 03:06:28;;;;;;;0.50;0.50;;;5.20;99.90;;;;;;5073237;28;20209;-85
2020/12/07 03:08:54;;;;;;;0.40;0.40;;;5.20;99.90;;;;;;5073059;28;20615;-84
2020/12/07 03:11:22;;;;;;;0.50;0.50;;;5.20;99.90;;;;;;5072999;28;20289;-85
2020/12/07 03:13:49;;;;;;;0.40;0.40;;;5.30;99.90;;;;;;5072377;28;20273;-84
2020/12/07 03:16:18;;;;;;;0.50;0.50;;;5.20;99.90;;;;;;5072764;28;20257;-85
2020/12/07 03:18:44;;;;;;;0.40;0.40;;;5.30;99.90;;;;;;5072816;28;20220;-85
2020/12/07 03:21:10;;;;;;;0.40;0.40;;;5.30;99.90;;;;;;5072646;28;20669;-85
2020/12/07 03:23:36;;;;;;;0.50;0.50;;;5.30;99.90;;;;;;5072599;28;20253;-85
2020/12/07 03:26:02;;;;;;;0.50;0.50;;;5.30;99.90;;;;;;5069235;28;20249;-84
2020/12/07 03:28:29;;;;;;;0.50;0.50;;;5.30;99.90;;;;;;5070296;28;20587;-85
2020/12/07 03:30:55;;;;;;;0.50;0.50;;;5.20;99.90;;;;;;5070712;28;20199;-85
2020/12/07 03:33:22;;;;;;;0.50;0.50;;;5.30;99.90;;;;;;5070803;28;20280;-85
2020/12/07 03:35:48;;;;;;;0.50;0.50;;;5.20;99.90;;;;;;5070212;28;20196;-85
2020/12/07 03:38:14;;;;;;;0.47;0.47;;;5.30;99.90;;;;;;5070575;28;20666;-85
2020/12/07 03:40:40;;;;;;;0.50;0.50;;;5.30;99.90;;;;;;5070299;28;20507;-85
2020/12/07 03:43:06;;;;;;;0.50;0.50;;;5.30;99.90;;;;;;5070167;28;20203;-85
2020/12/07 03:45:32;;;;;;;0.50;0.50;;;5.30;99.90;;;;;;5070255;28;20674;-85
2020/12/07 03:47:59;;;;;;;0.50;0.50;;;5.20;99.90;;;;;;5070455;28;20191;-85
2020/12/07 03:50:25;;;;;;;0.50;0.50;;;5.30;99.90;;;;;;5070480;28;20277;-85
2020/12/07 03:52:51;;;;;;;0.50;0.50;;;5.30;99.90;;;;;;5069874;28;20235;-86
2020/12/07 03:55:18;;;;;;;0.50;0.50;;;5.30;99.90;;;;;;5070044;28;20650;-86
2020/12/07 03:57:44;;;;;;;0.50;0.50;;;5.30;99.90;;;;;;5069914;28;20211;-86
2020/12/07 04:00:10;;;;;;;0.50;0.50;;;5.30;99.90;;;;;;5069790;28;20203;-85
2020/12/07 04:02:36;;;;;;;0.50;0.50;;;5.30;99.90;;;;;;5069459;28;20298;-86
2020/12/07 04:05:09;;;;;;;0.40;0.40;;;5.40;99.90;;;;;;5070023;28;20196;-85
2020/12/07 04:07:35;;;;;;;0.50;0.50;;;5.40;99.90;;;;;;5070029;28;20207;-86
2020/12/07 04:10:01;;;;;;;0.40;0.40;;;5.40;99.90;;;;;;5069612;28;20199;-85
2020/12/07 04:12:27;;;;;;;0.50;0.50;;;5.60;99.90;;;;;;5069597;28;20251;-85
2020/12/07 04:14:53;;;;;;;0.40;0.40;;;5.40;99.90;;;;;;5069474;28;20199;-86
2020/12/07 04:17:20;;;;;;;0.50;0.50;;;5.40;99.90;;;;;;5069651;28;20255;-85
2020/12/07 04:19:46;;;;;;;0.50;0.50;;;5.40;99.90;;;;;;5069590;28;20239;-86
2020/12/07 04:22:13;;;;;;;0.50;0.50;;;5.40;99.90;;;;;;5069297;28;20281;-85
2020/12/07 04:24:39;;;;;;;0.50;0.50;;;5.30;99.90;;;;;;5069583;28;20250;-86
2020/12/07 04:27:05;;;;;;;0.50;0.50;;;5.30;99.90;;;;;;5069309;28;20245;-86
2020/12/07 04:29:31;;;;;;;0.50;0.50;;;5.40;99.90;;;;;;5068864;28;20719;-86
2020/12/07 04:31:57;;;;;;;0.50;0.50;;;5.40;99.90;;;;;;5068878;28;20216;-85
2020/12/07 04:34:23;;;;;;;0.50;0.50;;;5.40;99.90;;;;;;5069238;28;20207;-86
2020/12/07 04:36:54;;;;;;;0.50;0.50;;;5.50;99.90;;;;;;5068843;28;20219;-86
2020/12/07 04:39:21;;;;;;;0.50;0.50;;;5.40;99.90;;;;;;5069225;28;20203;-86
2020/12/07 04:41:48;;;;;;;0.50;0.50;;;5.50;99.90;;;;;;5068790;28;20207;-86
2020/12/07 04:44:15;;;;;;;0.45;0.45;;;5.50;99.90;;;;;;5068982;28;20561;-86
2020/12/07 04:46:41;;;;;;;0.50;0.50;;;5.50;99.90;;;;;;5069059;28;20257;-86
2020/12/07 04:49:07;;;;;;;0.45;0.45;;;5.50;99.90;;;;;;5068583;28;20252;-86
2020/12/07 04:51:37;;;;;;;0.50;0.50;;;5.50;99.90;;;;;;5068862;28;20215;-86
2020/12/07 04:54:03;;;;;;;0.50;0.50;;;5.60;99.90;;;;;;5068653;28;20823;-86
2020/12/07 04:56:32;;;;;;;0.50;0.50;;;5.60;99.90;;;;;;5068532;28;20245;-86
2020/12/07 04:58:58;;;;;;;0.50;0.50;;;5.60;99.90;;;;;;5068798;28;20208;-85
2020/12/07 05:01:25;;;;;;;0.50;0.50;;;5.60;99.90;;;;;;5069282;28;20203;-86
2020/12/07 05:03:51;;;;;;;0.50;0.50;;;5.60;99.90;;;;;;5068759;28;20724;-86
2020/12/07 05:06:19;;;;;;;0.50;0.50;;;5.60;99.90;;;;;;5068809;28;20332;-85
2020/12/07 05:08:48;;;;;;;0.50;0.50;;;5.70;99.90;;;;;;5067620;28;20608;-86
2020/12/07 05:11:14;;;;;;;0.50;0.50;;;5.60;99.90;;;;;;5071002;28;20207;-85
2020/12/07 05:13:45;;;;;;;0.50;0.50;;;5.70;99.90;;;;;;5069080;28;20238;-84
2020/12/07 05:16:12;;;;;;;0.50;0.50;;;5.70;99.90;;;;;;5071570;28;20208;-85
2020/12/07 05:18:41;;;;;;;0.50;0.50;;;5.70;99.90;;;;;;5071235;28;20256;-85
2020/12/07 05:21:11;;;;;;;0.50;0.50;;;5.70;99.90;;;;;;5070943;28;20204;-85
2020/12/07 05:23:38;;;;;;;0.45;0.45;;;5.80;99.90;;;;;;5071711;28;20207;-86
2020/12/07 05:26:08;;;;;;;0.50;0.50;;;5.80;99.90;;;;;;5071185;28;20551;-86
2020/12/07 05:28:37;;;;;;;0.50;0.50;;;5.80;99.90;;;;;;5070797;28;20253;-85
2020/12/07 05:31:04;;;;;;;0.50;0.50;;;5.80;99.90;;;;;;5070605;28;20264;-87
2020/12/07 05:33:31;;;;;;;0.50;0.50;;;5.90;99.90;;;;;;5070668;28;20223;-86
2020/12/07 05:35:58;;;;;;;0.50;0.50;;;5.90;99.90;;;;;;5070664;28;20628;-86
2020/12/07 05:38:32;;;;;;;0.50;0.50;;;5.90;99.90;;;;;;5070440;28;20538;-86
2020/12/07 05:41:01;;;;;;;0.50;0.50;;;5.90;99.90;;;;;;5071453;28;20725;-85
2020/12/07 05:43:28;;;;;;;0.50;0.50;;;5.90;99.90;;;;;;5071101;28;20883;-85
2020/12/07 05:45:57;;;;;;;0.50;0.50;;;6.00;99.90;;;;;;5071154;28;20199;-85
2020/12/07 05:48:29;;;;;;;0.50;0.50;;;6.00;99.90;;;;;;5071035;28;20813;-85
2020/12/07 05:50:56;;;;;;;0.50;0.50;;;6.00;99.90;;;;;;5070945;28;20666;-85
2020/12/07 05:53:25;;;;;;;0.50;0.50;;;6.00;99.90;;;;;;5070933;28;20291;-86
2020/12/07 05:55:51;;;;;;;0.50;0.50;;;6.00;99.90;;;;;;5071142;28;20199;-85
2020/12/07 05:58:21;;;;;;;0.50;0.50;;;6.00;99.90;;;;;;5071487;28;20203;-86
2020/12/07 06:00:47;;;;;;;0.50;0.50;;;6.00;99.90;;;;;;5071029;28;20219;-86
2020/12/07 06:03:17;;;;;;;0.50;0.50;;;6.00;99.90;;;;;;5071124;28;20200;-87
2020/12/07 06:05:46;;;;;;;0.50;0.50;;;6.00;99.90;;;;;;5071043;28;20720;-86
2020/12/07 06:08:15;;;;;;;0.50;0.50;;;7.20;99.90;;;;;;5070827;28;20298;-85
2020/12/07 06:10:47;;;;;;;0.50;0.50;;;6.10;99.90;;;;;;5070923;28;20203;-85
2020/12/07 06:13:23;;;;;;;0.50;0.50;;;6.10;99.90;;;;;;5071109;28;20235;-85
2020/12/07 06:15:50;;;;;;;0.50;0.50;;;6.10;99.90;;;;;;5071866;28;20208;-86
2020/12/07 06:18:26;;;;;;;0.50;0.50;;;6.10;99.90;;;;;;5071572;28;20654;-86
2020/12/07 06:20:56;;;;;;;0.50;0.50;;;6.10;99.90;;;;;;5072363;28;20211;-85
2020/12/07 06:23:30;;;;;;;0.50;0.50;;;6.20;99.90;;;;;;5073590;28;20200;-86
2020/12/07 06:26:00;;;;;;;0.50;0.50;;;6.10;99.90;;;;;;5073167;28;20210;-86
2020/12/07 06:28:31;;;;;;;0.50;0.50;;;6.10;99.90;;;;;;5075991;28;20692;-87
2020/12/07 06:31:03;;;;;;;0.50;0.50;;;6.20;99.90;;;;;;5075156;28;20290;-86
2020/12/07 06:33:30;;;;;;;0.50;0.50;;;6.20;99.90;;;;;;5074114;28;20310;-86
2020/12/07 06:35:57;;;;;;;0.50;0.50;;;6.20;99.90;;;;;;5074248;28;20226;-86
2020/12/07 06:38:23;;;;;;;0.50;0.50;;;6.20;99.90;;;;;;5074868;28;20261;-85
2020/12/07 06:40:53;;;;;;;0.50;0.50;;;6.20;99.90;;;;;;5075238;28;20241;-85
2020/12/07 06:43:26;;;;;;;0.50;0.50;;;6.30;99.90;;;;;;5074446;28;20254;-85
2020/12/07 06:45:53;;;;;;;0.50;0.50;;;6.20;99.90;;;;;;5073045;28;20211;-86
2020/12/07 06:48:21;;;;;;;0.50;0.50;;;6.20;99.90;;;;;;5074259;28;20207;-85
2020/12/07 06:50:49;;;;;;;0.50;0.50;;;6.20;99.90;;;;;;5074753;28;20203;-85
2020/12/07 06:53:38;;;;;;;0.50;0.50;;;6.30;99.90;;;;;;5074645;28;20285;-86
2020/12/07 06:56:04;;;;;;;0.50;0.50;;;6.30;99.90;;;;;;5074626;28;20298;-86
2020/12/07 06:58:32;;;;;;;0.50;0.50;;;6.30;99.90;;;;;;5074678;28;20204;-86
2020/12/07 07:01:10;;;;;;;0.50;0.50;;;6.40;99.90;;;;;;5074333;28;20203;-86
2020/12/07 07:03:46;;;;;;;0.50;0.50;;;6.40;99.90;;;;;;5074829;28;20205;-85
2020/12/07 07:06:12;;;;;;;0.50;0.50;;;6.40;99.90;;;;;;5074742;28;20261;-86
2020/12/07 07:08:40;;;;;;;0.50;0.50;;;6.40;99.90;;;;;;5073830;28;20200;-86
2020/12/07 07:11:08;;;;;;;0.50;0.50;;;6.40;99.90;;;;;;5074285;28;20215;-86
2020/12/07 07:13:34;;;;;;;0.50;0.50;;;6.50;99.90;;;;;;5073830;28;20569;-85
2020/12/07 07:16:00;;;;;;;0.50;0.50;;;6.50;99.90;;;;;;5072930;28;20200;-86
2020/12/07 07:18:26;;;;;;;0.50;0.50;;;6.50;99.90;;;;;;5073537;28;20231;-85
2020/12/07 07:21:02;;;;;;;0.50;0.50;;;6.50;99.90;;;;;;5073507;28;20250;-85
2020/12/07 07:23:29;;;;;;;0.50;0.50;;;6.50;99.90;;;;;;5074320;28;20264;-86
2020/12/07 07:26:16;;;;;;;0.50;0.50;;;6.60;99.90;;;;;;5070918;28;20214;-81
2020/12/07 07:28:43;;;;;;;0.50;0.50;;;6.60;99.90;;;;;;5073193;28;20207;-81
2020/12/07 07:31:13;;;;;;;0.50;0.50;;;6.50;99.90;;;;;;5057840;28;20326;-86
2020/12/07 07:33:39;;;;;;;0.50;0.50;;;6.60;99.90;;;;;;5067436;28;20571;-87
2020/12/07 07:36:05;;;;;;;0.50;0.50;;;6.40;99.90;;;;;;5073990;28;20207;-86
2020/12/07 07:38:33;;;;;;;0.50;0.50;;;6.60;99.90;;;;;;5073317;28;20195;-86
2020/12/07 07:41:00;;;;;;;0.50;0.50;;;6.60;99.90;;;;;;5073838;28;20600;-86
2020/12/07 07:43:28;;;;;;;0.50;0.50;;;6.60;99.90;;;;;;5074194;28;20253;-85
2020/12/07 07:45:58;;;;;;;0.50;0.50;;;6.60;99.90;;;;;;5073100;28;20207;-86
2020/12/07 07:48:30;;;;;;;0.50;0.50;;;6.70;99.90;;;;;;5074177;28;20712;-85
2020/12/07 08:16:22;;;;;;;0.50;0.50;;;6.80;99.90;;;;;;5093319;28;20670;-85
2020/12/07 08:18:51;;;;;;;0.50;0.50;;;6.80;99.90;;;;;;5093400;28;20280;-85
2020/12/07 08:21:27;;;;;;;0.50;0.50;;;6.80;99.90;;;;;;5093367;28;20211;-85
2020/12/07 08:23:55;;;;;;;0.50;0.50;;;6.80;99.90;;;;;;5093173;28;20260;-85
2020/12/07 08:26:23;;;;;;;0.50;0.50;;;6.80;99.90;;;;;;5093331;28;20198;-85
2020/12/07 08:28:53;;;;;;;0.50;0.50;;;6.80;99.90;;;;;;5093244;28;20207;-85
2020/12/07 08:31:21;;;;;;;0.50;0.50;;;6.80;99.90;;;;;;5093267;28;20293;-86
2020/12/07 08:33:57;;;;;;;0.50;0.50;;;6.80;99.90;;;;;;5092816;28;20223;-85
2020/12/07 08:36:23;;;;;;;0.50;0.50;;;6.90;99.90;;;;;;5093248;28;20210;-85
2020/12/07 08:38:50;;;;;;;0.50;0.50;;;6.90;99.90;;;;;;5093496;28;20253;-86
2020/12/07 08:41:17;;;;;;;0.50;0.50;;;6.90;99.90;;;;;;5093018;28;20195;-85
2020/12/07 08:43:45;;;;;;;0.50;0.50;;;6.90;99.90;;;;;;5092632;28;20779;-85
2020/12/07 08:46:15;;;;;;;0.50;0.50;;;6.90;99.90;;;;;;5091748;28;20203;-85
2020/12/07 08:48:45;;;;;;;0.50;0.50;;;6.90;99.90;;;;;;5091112;28;20658;-84
2020/12/07 08:51:12;;;;;;;0.50;0.50;;;6.90;99.90;;;;;;5091612;28;20199;-85
2020/12/07 08:53:38;;;;;;;0.50;0.50;;;6.90;99.90;;;;;;5091656;28;20219;-85
2020/12/07 08:56:06;;;;;;;0.50;0.50;;;6.90;99.90;;;;;;5092107;28;20253;-85
2020/12/07 08:58:33;;;;;;;0.50;0.50;;;7.00;99.90;;;;;;5092851;28;20211;-86
2020/12/07 09:01:00;;;;;;;0.50;0.50;;;7.00;99.90;;;;;;5092689;28;20206;-85
2020/12/07 09:03:26;;;;;;;0.50;0.50;;;7.00;99.90;;;;;;5092778;28;20210;-85
2020/12/07 09:05:53;;;;;;;0.50;0.50;;;7.00;99.90;;;;;;5090601;28;20203;-85
2020/12/07 09:08:19;;;;;;;0.50;0.50;;;7.00;99.90;;;;;;5092562;28;20206;-85
2020/12/07 09:10:45;;;;;;;0.50;0.50;;;7.00;99.90;;;;;;5092623;28;20203;-85
2020/12/07 09:13:12;;;;;;;0.50;0.50;;;7.00;99.90;;;;;;5091396;28;20234;-85
2020/12/07 09:15:38;;;;;;;0.50;0.50;;;7.00;99.90;;;;;;5092474;28;20264;-85
2020/12/07 09:18:04;;;;;;;0.50;0.50;;;7.00;99.90;;;;;;5092469;28;20202;-85
2020/12/07 09:20:30;;;;;;;0.50;0.50;;;7.00;99.90;;;;;;5092511;28;20206;-84
2020/12/07 09:22:57;;;;;;;0.50;0.50;;;7.00;99.90;;;;;;5092473;28;20207;-85
2020/12/07 09:25:23;;;;;;;0.50;0.50;;;7.00;99.90;;;;;;5092616;28;20207;-86
2020/12/07 09:27:49;;;;;;;0.50;0.50;;;7.00;99.90;;;;;;5092579;28;20242;-86
2020/12/07 09:30:15;;;;;;;0.50;0.50;;;7.00;99.90;;;;;;5092296;28;20201;-86
2020/12/07 09:32:42;;;;;;;0.50;0.50;;;7.00;99.90;;;;;;5092384;28;20276;-85
2020/12/07 09:35:08;;;;;;;0.50;0.50;;;7.00;99.90;;;;;;5076070;28;20204;-86
2020/12/07 09:37:35;;;;;;;0.50;0.50;;;7.00;99.90;;;;;;5072111;28;20550;-85
2020/12/07 09:40:04;;;;;;;0.50;0.50;;;7.00;99.90;;;;;;5071579;28;20298;-85
2020/12/07 09:42:31;;;;;;;0.55;0.55;;;7.00;99.90;;;;;;5072052;28;20196;-85
2020/12/07 09:45:00;;;;;;;0.50;0.50;;;6.80;99.90;;;;;;5071967;28;20199;-85
2020/12/07 09:47:27;;;;;;;0.50;0.50;;;6.90;99.90;;;;;;5072033;28;20685;-85
2020/12/07 09:49:56;;;;;;;0.50;0.50;;;6.80;99.90;;;;;;5072114;28;20210;-86
2020/12/07 09:52:22;;;;;;;0.50;0.50;;;6.70;99.90;;;;;;5071961;28;20659;-85
2020/12/07 09:54:48;;;;;;;0.50;0.50;;;6.60;99.90;;;;;;5072038;28;20212;-86
2020/12/07 09:57:15;;;;;;;0.50;0.50;;;6.50;99.90;;;;;;5072057;28;20203;-85
2020/12/07 09:59:48;;;;;;;0.50;0.50;;;6.40;99.90;;;;;;5071793;28;20905;-85
2020/12/07 10:02:14;;;;;;;0.50;0.50;;;6.40;99.90;;;;;;5074204;28;20238;-85
2020/12/07 10:04:40;;;;;;;0.50;0.50;;;6.30;99.90;;;;;;5074486;28;20203;-85
2020/12/07 10:07:06;;;;;;;0.50;0.50;;;6.20;99.90;;;;;;5074643;28;20200;-85
2020/12/07 10:09:32;;;;;;;0.50;0.50;;;6.20;99.90;;;;;;5073169;28;20196;-85
2020/12/07 10:11:59;;;;;;;0.50;0.50;;;6.10;99.90;;;;;;5074545;28;20255;-85
2020/12/07 10:14:25;;;;;;;0.50;0.50;;;6.00;99.90;;;;;;5074344;28;20235;-85
2020/12/07 10:16:52;;;;;;;0.50;0.50;;;6.00;99.90;;;;;;5074890;28;20826;-84
2020/12/07 10:19:18;;;;;;;0.50;0.50;;;6.00;99.90;;;;;;5074751;28;20207;-84
2020/12/07 10:21:44;;;;;;;0.60;0.60;;;5.90;99.90;;;;;;5074704;28;20203;-85
2020/12/07 10:24:12;;;;;;;0.50;0.50;;;5.80;99.90;;;;;;5074429;28;20841;-84
2020/12/07 10:26:38;;;;;;;0.50;0.50;;;5.80;99.90;;;;;;5074520;28;20343;-84
2020/12/07 10:29:04;;;;;;;0.50;0.50;;;5.80;99.90;;;;;;5074019;28;20260;-84
2020/12/07 10:31:31;;;;;;;0.50;0.50;;;5.70;99.90;;;;;;5073415;28;20211;-84
2020/12/07 10:33:58;;;;;;;0.50;0.50;;;5.70;99.90;;;;;;5073755;28;20963;-84
2020/12/07 10:36:24;;;;;;;0.50;0.50;;;5.60;99.90;;;;;;5072938;28;20200;-84
2020/12/07 10:38:51;;;;;;;0.50;0.50;;;5.60;99.90;;;;;;5074255;28;20207;-84
2020/12/07 10:41:18;;;;;;;0.50;0.50;;;5.60;99.90;;;;;;5074245;28;20200;-84
2020/12/07 10:43:45;;;;;;;0.50;0.50;;;5.50;99.90;;;;;;5073883;28;20196;-84
2020/12/07 10:46:12;;;;;;;0.50;0.50;;;5.50;99.90;;;;;;5074061;28;20199;-84
2020/12/07 10:48:40;;;;;;;0.50;0.50;;;5.50;99.90;;;;;;5073912;28;20196;-84
2020/12/07 10:51:06;;;;;;;0.50;0.50;;;5.40;99.90;;;;;;5073765;28;20204;-85
2020/12/07 10:53:32;;;;;;;0.50;0.50;;;5.50;99.90;;;;;;5073825;28;20238;-83
2020/12/07 10:56:01;;;;;;;0.50;0.50;;;5.40;99.90;;;;;;5073784;28;20211;-84
2020/12/07 10:58:27;;;;;;;0.50;0.50;;;5.30;99.90;;;;;;5073659;28;20200;-84
2020/12/07 11:00:54;;;;;;;0.60;0.60;;;5.30;99.90;;;;;;5073593;28;20204;-84
2020/12/07 11:03:20;;;;;;;0.50;0.50;;;5.30;99.90;;;;;;5073523;28;20203;-84
2020/12/07 11:05:54;;;;;;;0.50;0.50;;;5.30;99.90;;;;;;5073738;28;20207;-84
2020/12/07 11:08:27;;;;;;;0.50;0.50;;;5.20;99.90;;;;;;5073411;28;20294;-84
2020/12/07 11:10:55;;;;;;;0.60;0.60;;;5.20;99.90;;;;;;5073388;28;20231;-84
2020/12/07 11:13:27;;;;;;;0.50;0.50;;;5.20;99.90;;;;;;5071892;28;20364;-84
2020/12/07 11:15:54;;;;;;;0.57;0.57;;;4.50;99.90;;;;;;5073138;28;20239;-84
2020/12/07 11:18:20;;;;;;;0.50;0.50;;;5.20;99.90;;;;;;5073056;28;20256;-84
2020/12/07 11:20:47;;;;;;;0.50;0.50;;;5.20;99.90;;;;;;5073178;28;20208;-84
2020/12/07 11:23:13;;;;;;;0.57;0.57;;;5.20;99.90;;;;;;5073078;28;20230;-84
2020/12/07 11:25:40;;;;;;;0.50;0.50;;;5.20;99.90;;;;;;5072948;28;20670;-84
2020/12/07 11:28:06;;;;;;;0.50;0.50;;;5.20;99.90;;;;;;5072999;28;20203;-84
2020/12/07 11:30:32;;;;;;;0.50;0.50;;;5.20;99.90;;;;;;5073009;28;20799;-84
2020/12/07 11:32:58;;;;;;;0.50;0.50;;;5.20;99.90;;;;;;5072824;28;20614;-85
2020/12/07 11:35:24;;;;;;;0.50;0.50;;;5.20;99.90;;;;;;5072847;28;20546;-84
2020/12/07 11:37:56;;;;;;;0.50;0.50;;;5.40;99.90;;;;;;5073121;28;20200;-84
2020/12/07 11:40:33;;;;;;;0.50;0.50;;;5.30;99.90;;;;;;5072846;28;20650;-85
2020/12/07 11:43:06;;;;;;;0.50;0.50;;;5.20;99.90;;;;;;5072754;28;20633;-84
2020/12/07 11:45:32;;;;;;;0.50;0.50;;;5.20;99.90;;;;;;5072868;28;20196;-84
2020/12/07 11:47:59;;;;;;;0.50;0.50;;;5.20;99.90;;;;;;5072691;28;20208;-85
2020/12/07 11:50:27;;;;;;;0.50;0.50;;;5.20;99.90;;;;;;5072849;28;20257;-84
2020/12/07 11:52:54;;;;;;;0.50;0.50;;;5.20;99.90;;;;;;5072412;28;20264;-84
2020/12/07 11:55:20;;;;;;;0.50;0.50;;;6.00;99.90;;;;;;5072700;28;20254;-84
2020/12/07 11:57:46;;;;;;;0.50;0.50;;;5.20;99.90;;;;;;5072529;28;20259;-84
2020/12/07 12:00:13;;;;;;;0.50;0.50;;;5.20;99.90;;;;;;5072204;28;20200;-84
2020/12/07 12:02:39;;;;;;;0.50;0.50;;;5.20;99.90;;;;;;5072386;28;20286;-84
2020/12/07 12:05:05;;;;;;;0.55;0.55;;;5.20;99.90;;;;;;5072637;28;20223;-83
2020/12/07 12:07:31;;;;;;;0.50;0.50;;;5.20;99.90;;;;;;5071924;28;20225;-83
2020/12/07 12:09:59;;;;;;;0.50;0.50;;;5.20;99.90;;;;;;5071365;28;20203;-84
2020/12/07 12:12:25;;;;;;;0.50;0.50;;;5.20;99.90;;;;;;5072346;28;20324;-84
2020/12/07 12:14:51;;;;;;;0.50;0.50;;;5.20;99.90;;;;;;5072820;28;20445;-84
2020/12/07 12:17:17;;;;;;;0.50;0.50;;;5.20;99.90;;;;;;5072877;28;20296;-85
2020/12/07 12:19:44;;;;;;;0.50;0.50;;;5.10;99.90;;;;;;5072941;28;20204;-86
2020/12/07 12:22:10;;;;;;;0.50;0.50;;;5.10;99.90;;;;;;5072979;28;20877;-85
2020/12/07 12:24:36;;;;;;;0.57;0.57;;;5.10;99.90;;;;;;5071448;28;20314;-85
2020/12/07 12:27:03;;;;;;;0.50;0.50;;;5.10;99.90;;;;;;5072855;28;20196;-86
2020/12/07 12:29:30;;;;;;;0.50;0.50;;;5.20;99.90;;;;;;5073246;28;20226;-86
2020/12/07 12:31:56;;;;;;;0.50;0.50;;;5.10;99.90;;;;;;5072888;28;20211;-86
2020/12/07 12:34:23;;;;;;;0.50;0.50;;;5.10;99.90;;;;;;5072551;28;20223;-86
2020/12/07 12:36:49;;;;;;;0.50;0.50;;;5.20;99.90;;;;;;5072834;28;20600;-86
2020/12/07 12:39:16;;;;;;;0.50;0.50;;;5.10;99.90;;;;;;5072674;28;20214;-85
2020/12/07 12:41:42;;;;;;;0.50;0.50;;;5.30;99.90;;;;;;5072168;28;20203;-85
2020/12/07 12:44:09;;;;;;;0.60;0.60;;;5.30;99.90;;;;;;5071810;28;20199;-86
2020/12/07 12:46:35;;;;;;;0.50;0.50;;;5.30;99.90;;;;;;5072063;28;20211;-86
2020/12/07 12:49:01;;;;;;;0.52;0.52;;;5.30;99.90;;;;;;5071737;28;20612;-86
2020/12/07 12:51:27;;;;;;;0.50;0.50;;;5.30;99.90;;;;;;5071751;28;20248;-86
2020/12/07 12:53:54;;;;;;;0.50;0.50;;;5.30;99.90;;;;;;5072401;28;20230;-86
2020/12/07 12:56:21;;;;;;;0.50;0.50;;;5.40;99.90;;;;;;5072302;28;20665;-87
2020/12/07 12:58:48;;;;;;;0.60;0.60;;;5.30;99.90;;;;;;5072791;28;20207;-86
2020/12/07 13:01:15;;;;;;;0.52;0.52;;;5.30;99.90;;;;;;5072459;28;20268;-86
2020/12/07 13:03:44;;;;;;;0.50;0.50;;;5.30;99.90;;;;;;5072489;28;20204;-85
2020/12/07 13:06:10;;;;;;;0.50;0.50;;;5.30;99.90;;;;;;5072220;28;20261;-84
2020/12/07 13:08:36;;;;;;;0.50;0.50;;;5.30;99.90;;;;;;5071771;28;20204;-84
2020/12/07 13:11:03;;;;;;;0.50;0.50;;;5.30;99.90;;;;;;5071721;28;20584;-84
2020/12/07 13:13:35;;;;;;;0.60;0.60;;;5.30;99.90;;;;;;5071329;28;20270;-85
2020/12/07 13:16:04;;;;;;;0.50;0.50;;;5.40;99.90;;;;;;5071568;28;20290;-84
2020/12/07 13:18:37;;;;;;;0.60;0.60;;;5.40;99.90;;;;;;5071833;28;20251;-83
2020/12/07 13:21:07;;;;;;;0.55;0.55;;;5.40;99.90;;;;;;5071693;28;20290;-85
2020/12/07 13:23:38;;;;;;;0.50;0.50;;;5.40;99.90;;;;;;5071714;28;20202;-85